createdAt,value
2023-04-05T00:00:25.952Z,941.50
2023-04-05T00:01:25.965Z,941.46
2023-04-05T00:02:25.947Z,941.42
2023-04-05T00:03:26.056Z,941.42
2023-04-05T00:04:26.067Z,941.41
2023-04-05T00:05:25.894Z,941.40
2023-04-05T00:06:25.916Z,941.36
2023-04-05T00:07:25.864Z,941.38
2023-04-05T00:08:25.910Z,941.38
2023-04-05T00:09:25.840Z,941.31
2023-04-05T00:10:25.851Z,941.36
2023-04-05T00:11:25.889Z,941.36
2023-04-05T00:12:25.865Z,941.38
2023-04-05T00:13:25.807Z,941.36
2023-04-05T00:14:25.820Z,941.38
2023-04-05T00:15:25.810Z,941.37
2023-04-05T00:16:25.882Z,941.31
2023-04-05T00:17:25.821Z,941.34
2023-04-05T00:18:25.756Z,941.32
2023-04-05T00:19:25.768Z,941.30
2023-04-05T00:20:25.752Z,941.30
2023-04-05T00:21:25.707Z,941.30
2023-04-05T00:22:25.698Z,941.29
2023-04-05T00:23:25.757Z,941.24
2023-04-05T00:24:25.683Z,941.26
2023-04-05T00:25:25.743Z,941.29
2023-04-05T00:26:25.761Z,941.26
2023-04-05T00:27:25.649Z,941.24
2023-04-05T00:28:25.644Z,941.25
2023-04-05T00:29:25.674Z,941.24
2023-04-05T00:30:25.630Z,941.25
2023-04-05T00:31:25.833Z,941.23
2023-04-05T00:32:25.642Z,941.26
2023-04-05T00:33:25.680Z,941.22
2023-04-05T00:34:25.653Z,941.24
2023-04-05T00:35:25.610Z,941.16
2023-04-05T00:36:25.577Z,941.19
2023-04-05T00:37:25.576Z,941.20
2023-04-05T00:38:25.544Z,941.21
2023-04-05T00:39:25.543Z,941.22
2023-04-05T00:40:25.512Z,941.21
2023-04-05T00:41:25.540Z,941.20
2023-04-05T00:42:25.550Z,941.18
2023-04-05T00:43:25.501Z,941.20
2023-04-05T00:44:25.539Z,941.22
2023-04-05T00:45:25.464Z,941.21
2023-04-05T00:46:25.537Z,941.23
2023-04-05T00:47:25.500Z,941.23
2023-04-05T00:48:25.474Z,941.18
2023-04-05T00:49:25.415Z,941.20
2023-04-05T00:50:25.442Z,941.15
2023-04-05T00:51:25.428Z,941.15
2023-04-05T00:52:25.397Z,941.14
2023-04-05T00:53:25.383Z,941.16
2023-04-05T00:54:25.416Z,941.11
2023-04-05T00:55:25.362Z,941.15
2023-04-05T00:56:25.374Z,941.13
2023-04-05T00:57:25.351Z,941.13
2023-04-05T00:58:25.396Z,941.14
2023-04-05T00:59:25.361Z,941.13
2023-04-05T01:00:25.388Z,941.15
2023-04-05T01:01:25.326Z,941.09
2023-04-05T01:02:25.364Z,941.09
2023-04-05T01:03:25.429Z,941.06
2023-04-05T01:04:25.389Z,941.06
2023-04-05T01:05:25.297Z,941.06
2023-04-05T01:06:25.376Z,941.09
2023-04-05T01:07:25.300Z,941.01
2023-04-05T01:08:25.316Z,941.05
2023-04-05T01:09:25.237Z,941.02
2023-04-05T01:10:25.240Z,941.01
2023-04-05T01:11:25.208Z,941.01
2023-04-05T01:12:25.246Z,941.04
2023-04-05T01:13:25.273Z,941.03
2023-04-05T01:14:25.207Z,941.01
2023-04-05T01:15:25.361Z,941.00
2023-04-05T01:16:25.150Z,940.99
2023-04-05T01:17:25.273Z,940.97
2023-04-05T01:18:25.211Z,941.00
2023-04-05T01:19:25.142Z,940.90
2023-04-05T01:20:25.294Z,940.86
2023-04-05T01:21:25.120Z,940.94
2023-04-05T01:22:25.184Z,940.94
2023-04-05T01:23:25.081Z,940.91
2023-04-05T01:24:25.185Z,940.88
2023-04-05T01:25:25.086Z,940.94
2023-04-05T01:26:25.426Z,940.90
2023-04-05T01:27:25.099Z,940.91
2023-04-05T01:28:25.093Z,940.87
2023-04-05T01:29:25.045Z,940.88
2023-04-05T01:30:25.082Z,940.88
2023-04-05T01:31:25.036Z,940.81
2023-04-05T01:32:25.086Z,940.83
2023-04-05T01:33:24.991Z,940.83
2023-04-05T01:34:24.997Z,940.81
2023-04-05T01:35:24.957Z,940.77
2023-04-05T01:36:25.037Z,940.79
2023-04-05T01:37:24.983Z,940.81
2023-04-05T01:38:24.968Z,940.78
2023-04-05T01:39:24.926Z,940.81
2023-04-05T01:40:24.919Z,940.81
2023-04-05T01:41:24.920Z,940.78
2023-04-05T01:42:24.923Z,940.80
2023-04-05T01:43:24.961Z,940.75
2023-04-05T01:44:24.893Z,940.76
2023-04-05T01:45:24.902Z,940.75
2023-04-05T01:46:24.999Z,940.75
2023-04-05T01:47:24.894Z,940.77
2023-04-05T01:48:24.831Z,940.75
2023-04-05T01:49:24.808Z,940.78
2023-04-05T01:50:24.832Z,940.72
2023-04-05T01:51:24.977Z,940.76
2023-04-05T01:52:24.794Z,940.75
2023-04-05T01:53:24.791Z,940.77
2023-04-05T01:54:24.831Z,940.75
2023-04-05T01:55:24.809Z,940.73
2023-04-05T01:56:24.750Z,940.72
2023-04-05T01:57:24.939Z,940.75
2023-04-05T01:58:24.774Z,940.74
2023-04-05T01:59:24.752Z,940.71
2023-04-05T02:00:24.730Z,940.74
2023-04-05T02:01:24.834Z,940.68
2023-04-05T02:02:24.799Z,940.71
2023-04-05T02:03:24.828Z,940.70
2023-04-05T02:04:24.673Z,940.68
2023-04-05T02:05:24.714Z,940.66
2023-04-05T02:06:24.734Z,940.73
2023-04-05T02:07:24.694Z,940.66
2023-04-05T02:08:24.672Z,940.67
2023-04-05T02:09:24.620Z,940.68
2023-04-05T02:10:24.776Z,940.62
2023-04-05T02:11:24.601Z,940.63
2023-04-05T02:12:24.608Z,940.64
2023-04-05T02:13:24.693Z,940.67
2023-04-05T02:14:24.594Z,940.61
2023-04-05T02:15:24.577Z,940.59
2023-04-05T02:16:24.687Z,940.55
2023-04-05T02:17:24.598Z,940.52
2023-04-05T02:18:24.567Z,940.52
2023-04-05T02:19:24.541Z,940.50
2023-04-05T02:20:24.599Z,940.45
2023-04-05T02:21:24.534Z,940.48
2023-04-05T02:22:24.507Z,940.44
2023-04-05T02:23:24.474Z,940.42
2023-04-05T02:24:24.551Z,940.41
2023-04-05T02:25:24.512Z,940.43
2023-04-05T02:26:24.483Z,940.36
2023-04-05T02:27:24.442Z,940.44
2023-04-05T02:28:24.445Z,940.44
2023-04-05T02:29:24.456Z,940.36
2023-04-05T02:30:24.420Z,940.39
2023-04-05T02:31:24.509Z,940.38
2023-04-05T02:32:24.484Z,940.42
2023-04-05T02:33:24.378Z,940.40
2023-04-05T02:34:24.449Z,940.40
2023-04-05T02:35:24.415Z,940.36
2023-04-05T02:36:24.349Z,940.36
2023-04-05T02:37:24.418Z,940.30
2023-04-05T02:38:24.358Z,940.38
2023-04-05T02:39:24.361Z,940.33
2023-04-05T02:40:24.323Z,940.33
2023-04-05T02:41:24.300Z,940.31
2023-04-05T02:42:24.308Z,940.35
2023-04-05T02:43:24.283Z,940.33
2023-04-05T02:44:24.264Z,940.33
2023-04-05T02:45:24.344Z,940.35
2023-04-05T02:46:24.296Z,940.27
2023-04-05T02:47:24.246Z,940.26
2023-04-05T02:48:24.234Z,940.25
2023-04-05T02:49:24.258Z,940.27
2023-04-05T02:50:24.264Z,940.29
2023-04-05T02:51:24.649Z,940.21
2023-04-05T02:52:24.220Z,940.27
2023-04-05T02:53:24.177Z,940.21
2023-04-05T02:54:24.197Z,940.25
2023-04-05T02:55:24.235Z,940.24
2023-04-05T02:56:24.209Z,940.22
2023-04-05T02:57:24.140Z,940.22
2023-04-05T02:58:24.167Z,940.20
2023-04-05T02:59:24.288Z,940.18
2023-04-05T03:00:24.153Z,940.13
2023-04-05T03:01:24.198Z,940.21
2023-04-05T03:02:24.166Z,940.15
2023-04-05T03:03:24.126Z,940.15
2023-04-05T03:04:24.105Z,940.12
2023-04-05T03:05:24.105Z,940.12
2023-04-05T03:06:24.074Z,940.14
2023-04-05T03:07:24.038Z,940.11
2023-04-05T03:08:24.031Z,940.17
2023-04-05T03:09:24.024Z,940.13
2023-04-05T03:10:24.034Z,940.11
2023-04-05T03:11:24.087Z,940.15
2023-04-05T03:12:23.988Z,940.11
2023-04-05T03:13:23.982Z,940.11
2023-04-05T03:14:24.027Z,940.11
2023-04-05T03:15:24.050Z,940.12
2023-04-05T03:16:24.130Z,940.10
2023-04-05T03:17:24.025Z,940.17
2023-04-05T03:18:23.942Z,940.19
2023-04-05T03:19:31.485Z,940.18
2023-04-05T03:20:24.008Z,940.13
2023-04-05T03:21:23.960Z,940.17
2023-04-05T03:22:23.939Z,940.17
2023-04-05T03:23:23.877Z,940.16
2023-04-05T03:24:23.876Z,940.18
2023-04-05T03:25:23.863Z,940.16
2023-04-05T03:26:23.854Z,940.18
2023-04-05T03:27:23.919Z,940.15
2023-04-05T03:28:23.824Z,940.18
2023-04-05T03:29:23.916Z,940.10
2023-04-05T03:30:23.849Z,940.12
2023-04-05T03:31:23.941Z,940.13
2023-04-05T03:32:23.958Z,940.13
2023-04-05T03:33:23.791Z,940.10
2023-04-05T03:34:23.799Z,940.12
2023-04-05T03:35:23.787Z,940.15
2023-04-05T03:36:23.803Z,940.11
2023-04-05T03:37:23.768Z,940.09
2023-04-05T03:38:23.810Z,940.06
2023-04-05T03:39:23.722Z,940.07
2023-04-05T03:40:23.718Z,940.09
2023-04-05T03:41:23.803Z,940.06
2023-04-05T03:42:23.755Z,940.12
2023-04-05T03:43:23.685Z,940.05
2023-04-05T03:44:23.763Z,940.08
2023-04-05T03:45:24.557Z,940.04
2023-04-05T03:46:28.474Z,940.04
2023-04-05T03:47:23.782Z,940.02
2023-04-05T03:48:23.655Z,940.03
2023-04-05T03:49:23.748Z,940.08
2023-04-05T03:50:23.660Z,940.09
2023-04-05T03:51:23.629Z,940.03
2023-04-05T03:52:23.587Z,940.04
2023-04-05T03:53:23.631Z,940.04
2023-04-05T03:54:23.764Z,940.05
2023-04-05T03:55:23.625Z,940.02
2023-04-05T03:56:23.566Z,940.02
2023-04-05T03:57:23.540Z,940.01
2023-04-05T03:58:23.573Z,940.03
2023-04-05T03:59:23.576Z,939.99
2023-04-05T04:00:23.578Z,939.96
2023-04-05T04:01:23.573Z,940.01
2023-04-05T04:02:23.581Z,939.95
2023-04-05T04:03:23.515Z,939.98
2023-04-05T04:04:23.513Z,939.96
2023-04-05T04:05:23.543Z,939.98
2023-04-05T04:06:23.517Z,939.99
2023-04-05T04:07:23.459Z,939.98
2023-04-05T04:08:23.539Z,939.95
2023-04-05T04:09:23.519Z,939.99
2023-04-05T04:10:23.427Z,939.99
2023-04-05T04:11:23.516Z,939.99
2023-04-05T04:12:23.458Z,939.96
2023-04-05T04:13:23.436Z,939.97
2023-04-05T04:14:23.464Z,939.92
2023-04-05T04:15:23.363Z,939.99
2023-04-05T04:16:23.402Z,939.98
2023-04-05T04:17:23.333Z,939.98
2023-04-05T04:18:23.395Z,939.94
2023-04-05T04:19:23.330Z,939.93
2023-04-05T04:20:23.365Z,939.99
2023-04-05T04:21:23.341Z,939.94
2023-04-05T04:22:23.288Z,939.93
2023-04-05T04:23:23.354Z,939.94
2023-04-05T04:24:23.266Z,939.97
2023-04-05T04:25:23.296Z,939.95
2023-04-05T04:26:23.318Z,939.95
2023-04-05T04:27:23.252Z,939.99
2023-04-05T04:28:23.250Z,939.97
2023-04-05T04:29:23.493Z,939.96
2023-04-05T04:30:23.220Z,939.96
2023-04-05T04:31:23.294Z,939.98
2023-04-05T04:32:23.196Z,939.97
2023-04-05T04:33:23.258Z,940.00
2023-04-05T04:34:23.169Z,940.03
2023-04-05T04:35:23.209Z,940.01
2023-04-05T04:36:23.260Z,940.02
2023-04-05T04:37:23.161Z,940.03
2023-04-05T04:38:23.132Z,940.01
2023-04-05T04:39:23.144Z,940.04
2023-04-05T04:40:23.194Z,940.04
2023-04-05T04:41:23.130Z,940.01
2023-04-05T04:42:23.116Z,939.98
2023-04-05T04:43:23.136Z,940.01
2023-04-05T04:44:23.074Z,940.01
2023-04-05T04:45:23.069Z,940.02
2023-04-05T04:46:34.590Z,940.01
2023-04-05T04:47:23.099Z,939.98
2023-04-05T04:48:23.097Z,940.01
2023-04-05T04:49:23.101Z,939.98
2023-04-05T04:50:23.010Z,939.99
2023-04-05T04:51:23.079Z,940.00
2023-04-05T04:52:23.050Z,939.98
2023-04-05T04:53:24.394Z,939.98
2023-04-05T04:54:23.034Z,939.98
2023-04-05T04:55:22.985Z,939.98
2023-04-05T04:56:22.993Z,940.00
2023-04-05T04:57:23.007Z,940.01
2023-04-05T04:58:22.988Z,939.99
2023-04-05T04:59:22.956Z,940.02
2023-04-05T05:00:22.932Z,940.03
2023-04-05T05:01:22.981Z,940.03
2023-04-05T05:02:22.970Z,940.02
2023-04-05T05:03:22.956Z,940.02
2023-04-05T05:04:22.995Z,940.07
2023-04-05T05:05:22.935Z,940.08
2023-04-05T05:06:22.908Z,940.06
2023-04-05T05:07:22.867Z,940.08
2023-04-05T05:08:22.940Z,940.08
2023-04-05T05:09:22.855Z,940.04
2023-04-05T05:10:22.837Z,940.06
2023-04-05T05:11:22.833Z,940.11
2023-04-05T05:12:22.811Z,940.14
2023-04-05T05:13:22.813Z,940.10
2023-04-05T05:14:22.861Z,940.09
2023-04-05T05:15:22.792Z,940.09
2023-04-05T05:16:27.528Z,940.10
2023-04-05T05:17:22.762Z,940.12
2023-04-05T05:18:22.822Z,940.08
2023-04-05T05:19:22.779Z,940.13
2023-04-05T05:20:22.736Z,940.09
2023-04-05T05:21:22.745Z,940.08
2023-04-05T05:22:22.728Z,940.08
2023-04-05T05:23:22.688Z,940.08
2023-04-05T05:24:22.716Z,940.11
2023-04-05T05:25:22.675Z,940.12
2023-04-05T05:26:22.848Z,940.07
2023-04-05T05:27:22.745Z,940.13
2023-04-05T05:28:22.772Z,940.15
2023-04-05T05:29:22.632Z,940.16
2023-04-05T05:30:22.658Z,940.18
2023-04-05T05:31:22.864Z,940.12
2023-04-05T05:32:22.617Z,940.08
2023-04-05T05:33:22.613Z,940.09
2023-04-05T05:34:22.589Z,940.05
2023-04-05T05:35:22.653Z,940.08
2023-04-05T05:36:22.563Z,940.11
2023-04-05T05:37:22.563Z,940.20
2023-04-05T05:38:22.615Z,940.19
2023-04-05T05:39:22.528Z,940.19
2023-04-05T05:40:22.520Z,940.19
2023-04-05T05:41:22.585Z,940.22
2023-04-05T05:42:22.494Z,940.23
2023-04-05T05:43:22.587Z,940.22
2023-04-05T05:44:22.625Z,940.17
2023-04-05T05:45:22.477Z,940.22
2023-04-05T05:46:22.677Z,940.17
2023-04-05T05:47:22.545Z,940.21
2023-04-05T05:48:22.494Z,940.17
2023-04-05T05:49:22.459Z,940.15
2023-04-05T05:50:22.422Z,940.16
2023-04-05T05:51:22.440Z,940.03
2023-04-05T05:52:22.399Z,940.05
2023-04-05T05:53:22.885Z,940.13
2023-04-05T05:54:22.422Z,940.11
2023-04-05T05:55:22.401Z,940.17
2023-04-05T05:56:22.358Z,940.16
2023-04-05T05:57:22.372Z,940.12
2023-04-05T05:58:22.354Z,940.12
2023-04-05T05:59:22.512Z,940.09
2023-04-05T06:00:22.312Z,940.09
2023-04-05T06:01:22.318Z,940.10
2023-04-05T06:02:22.413Z,940.11
2023-04-05T06:03:22.454Z,940.08
2023-04-05T06:04:22.471Z,940.08
2023-04-05T06:05:22.273Z,940.07
2023-04-05T06:06:22.303Z,940.02
2023-04-05T06:07:22.284Z,940.09
2023-04-05T06:08:22.239Z,940.00
2023-04-05T06:09:22.246Z,940.08
2023-04-05T06:10:22.218Z,940.03
2023-04-05T06:11:22.266Z,940.00
2023-04-05T06:12:22.243Z,940.04
2023-04-05T06:13:22.235Z,939.99
2023-04-05T06:14:22.305Z,939.98
2023-04-05T06:15:22.184Z,939.98
2023-04-05T06:16:22.218Z,940.00
2023-04-05T06:17:22.185Z,940.02
2023-04-05T06:18:22.154Z,940.01
2023-04-05T06:19:22.148Z,939.98
2023-04-05T06:20:22.149Z,939.91
2023-04-05T06:21:22.200Z,939.92
2023-04-05T06:22:22.084Z,939.91
2023-04-05T06:23:22.107Z,939.95
2023-04-05T06:24:22.467Z,939.88
2023-04-05T06:25:22.061Z,939.86
2023-04-05T06:26:22.165Z,939.85
2023-04-05T06:27:22.051Z,939.89
2023-04-05T06:28:22.085Z,939.80
2023-04-05T06:29:22.105Z,939.79
2023-04-05T06:30:22.058Z,939.78
2023-04-05T06:31:22.077Z,939.79
2023-04-05T06:32:22.057Z,939.77
2023-04-05T06:33:22.098Z,939.75
2023-04-05T06:34:21.992Z,939.76
2023-04-05T06:35:22.007Z,939.76
2023-04-05T06:36:21.958Z,939.76
2023-04-05T06:37:21.961Z,939.80
2023-04-05T06:38:21.918Z,939.77
2023-04-05T06:39:21.952Z,939.80
2023-04-05T06:40:21.905Z,939.83
2023-04-05T06:41:21.923Z,939.81
2023-04-05T06:42:21.928Z,939.79
2023-04-05T06:43:21.929Z,939.79
2023-04-05T06:44:21.881Z,939.82
2023-04-05T06:45:21.939Z,939.80
2023-04-05T06:46:21.962Z,939.84
2023-04-05T06:47:21.825Z,939.83
2023-04-05T06:48:21.841Z,939.78
2023-04-05T06:49:21.819Z,939.76
2023-04-05T06:50:21.843Z,939.80
2023-04-05T06:51:21.820Z,939.75
2023-04-05T06:52:21.789Z,939.82
2023-04-05T06:53:21.761Z,939.81
2023-04-05T06:54:21.800Z,939.71
2023-04-05T06:55:21.773Z,939.75
2023-04-05T06:56:21.791Z,939.70
2023-04-05T06:57:21.728Z,939.77
2023-04-05T06:58:21.718Z,939.73
2023-04-05T06:59:21.753Z,939.65
2023-04-05T07:00:21.683Z,939.70
2023-04-05T07:01:21.854Z,939.66
2023-04-05T07:02:21.660Z,939.68
2023-04-05T07:03:22.015Z,939.64
2023-04-05T07:04:21.761Z,939.67
2023-04-05T07:05:21.628Z,939.60
2023-04-05T07:06:21.688Z,939.68
2023-04-05T07:07:21.610Z,939.67
2023-04-05T07:08:21.594Z,939.72
2023-04-05T07:09:21.609Z,939.70
2023-04-05T07:10:21.576Z,939.67
2023-04-05T07:11:21.595Z,939.60
2023-04-05T07:12:21.553Z,939.60
2023-04-05T07:13:21.652Z,939.59
2023-04-05T07:14:21.775Z,939.62
2023-04-05T07:15:21.554Z,939.57
2023-04-05T07:16:26.493Z,939.62
2023-04-05T07:17:21.536Z,939.58
2023-04-05T07:18:21.504Z,939.61
2023-04-05T07:19:21.556Z,939.56
2023-04-05T07:20:21.467Z,939.52
2023-04-05T07:21:21.481Z,939.54
2023-04-05T07:22:21.506Z,939.53
2023-04-05T07:23:22.599Z,939.53
2023-04-05T07:24:21.430Z,939.49
2023-04-05T07:25:21.420Z,939.50
2023-04-05T07:26:21.404Z,939.52
2023-04-05T07:27:21.391Z,939.51
2023-04-05T07:28:21.406Z,939.50
2023-04-05T07:29:21.412Z,939.48
2023-04-05T07:30:21.407Z,939.44
2023-04-05T07:31:21.375Z,939.46
2023-04-05T07:32:21.383Z,939.40
2023-04-05T07:33:21.331Z,939.46
2023-04-05T07:34:21.355Z,939.42
2023-04-05T07:35:21.420Z,939.47
2023-04-05T07:36:21.330Z,939.43
2023-04-05T07:37:21.322Z,939.46
2023-04-05T07:38:21.363Z,939.45
2023-04-05T07:39:21.316Z,939.46
2023-04-05T07:40:21.330Z,939.44
2023-04-05T07:41:21.406Z,939.47
2023-04-05T07:42:21.264Z,939.45
2023-04-05T07:43:21.283Z,939.45
2023-04-05T07:44:21.214Z,939.44
2023-04-05T07:45:21.348Z,939.40
2023-04-05T07:46:21.337Z,939.46
2023-04-05T07:47:21.210Z,939.41
2023-04-05T07:48:21.197Z,939.40
2023-04-05T07:49:21.189Z,939.41
2023-04-05T07:50:21.135Z,939.49
2023-04-05T07:51:21.140Z,939.44
2023-04-05T07:52:21.135Z,939.48
2023-04-05T07:53:21.102Z,939.47
2023-04-05T07:54:21.120Z,939.49
2023-04-05T07:55:21.184Z,939.48
2023-04-05T07:56:21.063Z,939.47
2023-04-05T07:57:21.063Z,939.45
2023-04-05T07:58:21.060Z,939.41
2023-04-05T07:59:21.066Z,939.41
2023-04-05T08:00:21.044Z,939.41
2023-04-05T08:01:21.046Z,939.46
2023-04-05T08:02:21.012Z,939.40
2023-04-05T08:03:21.117Z,939.43
2023-04-05T08:04:21.021Z,939.45
2023-04-05T08:05:21.009Z,939.39
2023-04-05T08:06:20.982Z,939.43
2023-04-05T08:07:21.030Z,939.41
2023-04-05T08:08:21.043Z,939.42
2023-04-05T08:09:20.943Z,939.36
2023-04-05T08:10:20.950Z,939.33
2023-04-05T08:11:20.947Z,939.35
2023-04-05T08:12:20.947Z,939.35
2023-04-05T08:13:20.927Z,939.38
2023-04-05T08:14:20.885Z,939.38
2023-04-05T08:15:20.909Z,939.32
2023-04-05T08:16:20.952Z,939.40
2023-04-05T08:17:21.086Z,939.37
2023-04-05T08:18:20.836Z,939.37
2023-04-05T08:19:20.871Z,939.41
2023-04-05T08:20:28.011Z,939.35
2023-04-05T08:21:20.881Z,939.39
2023-04-05T08:22:21.471Z,939.39
2023-04-05T08:23:20.840Z,939.39
2023-04-05T08:24:20.825Z,939.42
2023-04-05T08:25:20.812Z,939.43
2023-04-05T08:26:20.779Z,939.43
2023-04-05T08:27:20.757Z,939.44
2023-04-05T08:28:20.815Z,939.43
2023-04-05T08:29:20.770Z,939.47
2023-04-05T08:30:20.715Z,939.44
2023-04-05T08:31:20.746Z,939.50
2023-04-05T08:32:20.744Z,939.45
2023-04-05T08:33:20.900Z,939.55
2023-04-05T08:34:20.669Z,939.49
2023-04-05T08:35:20.698Z,939.50
2023-04-05T08:36:20.649Z,939.50
2023-04-05T08:37:20.637Z,939.43
2023-04-05T08:38:20.633Z,939.47
2023-04-05T08:39:20.649Z,939.40
2023-04-05T08:40:20.650Z,939.44
2023-04-05T08:41:20.584Z,939.40
2023-04-05T08:42:20.636Z,939.37
2023-04-05T08:43:20.685Z,939.35
2023-04-05T08:44:21.489Z,939.38
2023-04-05T08:45:20.556Z,939.29
2023-04-05T08:46:31.549Z,939.33
2023-04-05T08:47:20.616Z,939.36
2023-04-05T08:48:20.559Z,939.37
2023-04-05T08:49:20.518Z,939.40
2023-04-05T08:50:20.635Z,939.38
2023-04-05T08:51:20.484Z,939.40
2023-04-05T08:52:20.536Z,939.46
2023-04-05T08:53:20.472Z,939.36
2023-04-05T08:54:20.449Z,939.37
2023-04-05T08:55:20.495Z,939.41
2023-04-05T08:56:20.447Z,939.41
2023-04-05T08:57:20.507Z,939.39
2023-04-05T08:58:20.440Z,939.35
2023-04-05T08:59:20.472Z,939.42
2023-04-05T09:00:20.472Z,939.37
2023-04-05T09:01:20.517Z,939.35
2023-04-05T09:02:20.408Z,939.40
2023-04-05T09:03:20.477Z,939.26
2023-04-05T09:04:20.360Z,939.36
2023-04-05T09:05:20.409Z,939.30
2023-04-05T09:06:20.351Z,939.34
2023-04-05T09:07:20.334Z,939.33
2023-04-05T09:08:20.352Z,939.25
2023-04-05T09:09:20.316Z,939.28
2023-04-05T09:10:20.286Z,939.29
2023-04-05T09:11:20.362Z,939.26
2023-04-05T09:12:20.271Z,939.26
2023-04-05T09:13:20.253Z,939.26
2023-04-05T09:14:21.041Z,939.24
2023-04-05T09:15:20.257Z,939.30
2023-04-05T09:16:25.077Z,939.33
2023-04-05T09:17:20.275Z,939.31
2023-04-05T09:18:26.916Z,939.30
2023-04-05T09:19:21.194Z,939.39
2023-04-05T09:20:20.227Z,939.30
2023-04-05T09:21:20.237Z,939.25
2023-04-05T09:22:20.174Z,939.27
2023-04-05T09:23:20.236Z,939.33
2023-04-05T09:24:20.186Z,939.29
2023-04-05T09:25:20.152Z,939.32
2023-04-05T09:26:20.163Z,939.32
2023-04-05T09:27:20.097Z,939.27
2023-04-05T09:28:20.094Z,939.36
2023-04-05T09:29:20.084Z,939.25
2023-04-05T09:30:20.120Z,939.30
2023-04-05T09:31:20.117Z,939.33
2023-04-05T09:32:20.138Z,939.28
2023-04-05T09:33:20.107Z,939.31
2023-04-05T09:34:20.073Z,939.30
2023-04-05T09:35:20.091Z,939.27
2023-04-05T09:36:20.040Z,939.31
2023-04-05T09:37:20.561Z,939.29
2023-04-05T09:38:19.998Z,939.32
2023-04-05T09:39:19.986Z,939.24
2023-04-05T09:40:19.980Z,939.29
2023-04-05T09:41:19.957Z,939.21
2023-04-05T09:42:20.066Z,939.26
2023-04-05T09:43:19.932Z,939.29
2023-04-05T09:44:19.918Z,939.26
2023-04-05T09:45:20.629Z,939.33
2023-04-05T09:46:41.139Z,939.31
2023-04-05T09:47:19.964Z,939.27
2023-04-05T09:48:19.952Z,939.25
2023-04-05T09:49:19.872Z,939.22
2023-04-05T09:50:19.870Z,939.23
2023-04-05T09:51:19.955Z,939.16
2023-04-05T09:52:19.839Z,939.19
2023-04-05T09:53:19.883Z,939.25
2023-04-05T09:54:19.802Z,939.23
2023-04-05T09:55:19.841Z,939.26
2023-04-05T09:56:19.786Z,939.27
2023-04-05T09:57:19.794Z,939.25
2023-04-05T09:58:20.096Z,939.22
2023-04-05T09:59:19.794Z,939.25
2023-04-05T10:00:20.060Z,939.25
2023-04-05T10:01:19.775Z,939.22
2023-04-05T10:02:19.796Z,939.25
2023-04-05T10:03:19.807Z,939.27
2023-04-05T10:05:48.245Z,939.21
2023-04-05T10:06:48.221Z,939.20
2023-04-05T10:07:48.194Z,939.11
2023-04-05T10:08:48.229Z,939.10
2023-04-05T10:09:48.327Z,939.13
2023-04-05T10:10:48.189Z,939.05
2023-04-05T10:11:48.156Z,939.12
2023-04-05T10:12:48.152Z,939.08
2023-04-05T10:13:48.152Z,939.07
2023-04-05T10:14:48.134Z,939.10
2023-04-05T10:15:48.239Z,939.06
2023-04-05T10:16:48.175Z,939.12
2023-04-05T10:17:48.146Z,939.13
2023-04-05T10:18:48.095Z,939.13
2023-04-05T10:19:48.069Z,939.11
2023-04-05T10:20:48.112Z,939.13
2023-04-05T10:21:48.109Z,939.12
2023-04-05T10:22:48.080Z,939.06
2023-04-05T10:23:48.083Z,939.17
2023-04-05T10:24:48.043Z,939.16
2023-04-05T10:25:48.871Z,939.17
2023-04-05T10:26:48.000Z,939.12
2023-04-05T10:27:48.011Z,939.19
2023-04-05T10:28:48.057Z,939.24
2023-04-05T10:29:47.969Z,939.08
2023-04-05T10:30:47.971Z,939.11
2023-04-05T10:31:48.079Z,939.03
2023-04-05T10:32:48.012Z,939.02
2023-04-05T10:34:47.936Z,939.02
2023-04-05T10:35:48.019Z,939.03
2023-04-05T10:36:47.892Z,939.03
2023-04-05T10:37:47.934Z,939.10
2023-04-05T10:38:47.912Z,939.06
2023-04-05T10:39:47.942Z,939.08
2023-04-05T10:40:47.851Z,939.05
2023-04-05T10:41:47.920Z,939.05
2023-04-05T10:42:47.870Z,939.00
2023-04-05T10:43:47.831Z,939.01
2023-04-05T10:44:47.848Z,938.96
2023-04-05T10:45:47.868Z,938.98
2023-04-05T10:46:52.626Z,939.01
2023-04-05T10:47:47.894Z,939.00
2023-04-05T10:48:47.765Z,938.97
2023-04-05T10:49:47.826Z,939.00
2023-04-05T10:50:47.799Z,939.04
2023-04-05T10:51:47.866Z,939.02
2023-04-05T10:52:47.781Z,938.99
2023-04-05T10:53:49.284Z,938.98
2023-04-05T10:54:47.748Z,938.86
2023-04-05T10:55:47.770Z,938.94
2023-04-05T10:56:47.731Z,939.00
2023-04-05T10:57:47.735Z,938.97
2023-04-05T10:58:47.760Z,939.01
2023-04-05T10:59:47.799Z,939.02
2023-04-05T11:00:47.865Z,938.97
2023-04-05T11:01:47.692Z,938.99
2023-04-05T11:02:47.694Z,938.98
2023-04-05T11:03:47.688Z,938.96
2023-04-05T11:04:47.632Z,938.99
2023-04-05T11:05:47.640Z,939.04
2023-04-05T11:06:47.692Z,939.00
2023-04-05T11:07:47.632Z,939.01
2023-04-05T11:08:47.568Z,938.99
2023-04-05T11:09:47.567Z,938.97
2023-04-05T11:10:47.605Z,938.95
2023-04-05T11:11:47.615Z,938.94
2023-04-05T11:12:47.561Z,938.88
2023-04-05T11:13:48.434Z,938.93
2023-04-05T11:14:47.540Z,938.88
2023-04-05T11:15:47.537Z,938.90
2023-04-05T11:16:47.569Z,938.95
2023-04-05T11:17:47.606Z,938.90
2023-04-05T11:18:47.475Z,938.92
2023-04-05T11:19:47.458Z,938.86
2023-04-05T11:20:47.449Z,938.84
2023-04-05T11:21:47.457Z,938.85
2023-04-05T11:22:47.498Z,938.84
2023-04-05T11:23:47.660Z,938.83
2023-04-05T11:24:47.415Z,938.83
2023-04-05T11:25:47.521Z,938.76
2023-04-05T11:26:47.404Z,938.77
2023-04-05T11:27:47.402Z,938.85
2023-04-05T11:28:47.385Z,938.80
2023-04-05T11:29:47.404Z,938.77
2023-04-05T11:30:47.468Z,938.73
2023-04-05T11:31:47.331Z,938.75
2023-04-05T11:32:47.339Z,938.76
2023-04-05T11:33:55.359Z,938.74
2023-04-05T11:34:48.331Z,938.72
2023-04-05T11:35:47.336Z,938.73
2023-04-05T11:36:47.310Z,938.74
2023-04-05T11:37:47.499Z,938.74
2023-04-05T11:38:47.279Z,938.71
2023-04-05T11:39:47.264Z,938.67
2023-04-05T11:40:47.247Z,938.73
2023-04-05T11:41:47.263Z,938.69
2023-04-05T11:42:47.283Z,938.64
2023-04-05T11:43:47.290Z,938.67
2023-04-05T11:44:47.297Z,938.65
2023-04-05T11:45:47.188Z,938.70
2023-04-05T11:46:52.243Z,938.69
2023-04-05T11:47:47.259Z,938.62
2023-04-05T11:48:47.222Z,938.67
2023-04-05T11:49:47.142Z,938.65
2023-04-05T11:50:47.155Z,938.61
2023-04-05T11:51:47.123Z,938.64
2023-04-05T11:52:47.141Z,938.66
2023-04-05T11:53:47.163Z,938.64
2023-04-05T11:54:47.453Z,938.55
2023-04-05T11:55:47.200Z,938.61
2023-04-05T11:56:47.103Z,938.58
2023-04-05T11:57:47.069Z,938.57
2023-04-05T11:58:47.077Z,938.60
2023-04-05T11:59:47.070Z,938.58
2023-04-05T12:00:47.038Z,938.63
2023-04-05T12:01:47.049Z,938.55
2023-04-05T12:02:47.177Z,938.56
2023-04-05T12:03:47.124Z,938.56
2023-04-05T12:04:47.076Z,938.53
2023-04-05T12:05:46.980Z,938.56
2023-04-05T12:06:46.965Z,938.57
2023-04-05T12:07:47.004Z,938.57
2023-04-05T12:08:49.063Z,938.57
2023-04-05T12:09:46.953Z,938.61
2023-04-05T12:10:47.024Z,938.54
2023-04-05T12:11:46.919Z,938.56
2023-04-05T12:12:46.934Z,938.55
2023-04-05T12:13:46.913Z,938.52
2023-04-05T12:14:46.912Z,938.50
2023-04-05T12:15:46.909Z,938.42
2023-04-05T12:16:47.159Z,938.44
2023-04-05T12:17:46.987Z,938.46
2023-04-05T12:18:46.842Z,938.47
2023-04-05T12:19:46.867Z,938.45
2023-04-05T12:20:46.815Z,938.48
2023-04-05T12:21:46.868Z,938.46
2023-04-05T12:22:46.817Z,938.41
2023-04-05T12:23:46.794Z,938.40
2023-04-05T12:24:46.856Z,938.38
2023-04-05T12:25:46.910Z,938.35
2023-04-05T12:26:46.789Z,938.39
2023-04-05T12:27:46.757Z,938.38
2023-04-05T12:28:46.740Z,938.36
2023-04-05T12:29:46.734Z,938.40
2023-04-05T12:30:46.704Z,938.36